sensor_id;sensor_type;location;lat;lon;timestamp;P1;durP1;ratioP1;P2;durP2;ratioP2
7719;SDS011;3902;49.474;8.616;2022-09-17T00:00:08;2.23;;;1.60;;
7719;SDS011;3902;49.474;8.616;2022-09-17T00:02:34;2.10;;;1.90;;
7719;SDS011;3902;49.474;8.616;2022-09-17T00:04:59;3.60;;;1.83;;
7719;SDS011;3902;49.474;8.616;2022-09-17T00:07:25;3.70;;;1.70;;
7719;SDS011;3902;49.474;8.616;2022-09-17T00:09:52;1.97;;;1.70;;
7719;SDS011;3902;49.474;8.616;2022-09-17T00:12:17;2.43;;;1.87;;
7719;SDS011;3902;49.474;8.616;2022-09-17T00:14:42;3.97;;;1.60;;
7719;SDS011;3902;49.474;8.616;2022-09-17T00:17:08;2.30;;;1.70;;
7719;SDS011;3902;49.474;8.616;2022-09-17T00:19:33;6.60;;;2.23;;
7719;SDS011;3902;49.474;8.616;2022-09-17T00:21:59;3.20;;;1.87;;
7719;SDS011;3902;49.474;8.616;2022-09-17T00:24:24;2.30;;;1.63;;
7719;SDS011;3902;49.474;8.616;2022-09-17T00:26:50;2.17;;;1.67;;
7719;SDS011;3902;49.474;8.616;2022-09-17T00:29:16;2.43;;;1.90;;
7719;SDS011;3902;49.474;8.616;2022-09-17T00:31:41;1.97;;;1.50;;
7719;SDS011;3902;49.474;8.616;2022-09-17T00:34:07;2.00;;;1.70;;
7719;SDS011;3902;49.474;8.616;2022-09-17T00:36:34;4.83;;;1.50;;
7719;SDS011;3902;49.474;8.616;2022-09-17T00:39:00;1.97;;;1.40;;
7719;SDS011;3902;49.474;8.616;2022-09-17T00:41:27;1.80;;;1.60;;
7719;SDS011;3902;49.474;8.616;2022-09-17T00:43:55;1.97;;;1.57;;
7719;SDS011;3902;49.474;8.616;2022-09-17T00:48:54;2.93;;;1.40;;
7719;SDS011;3902;49.474;8.616;2022-09-17T00:51:25;2.13;;;1.50;;
7719;SDS011;3902;49.474;8.616;2022-09-17T00:53:55;2.83;;;1.50;;
7719;SDS011;3902;49.474;8.616;2022-09-17T00:58:48;3.17;;;1.97;;
7719;SDS011;3902;49.474;8.616;2022-09-17T01:01:15;1.90;;;1.47;;
7719;SDS011;3902;49.474;8.616;2022-09-17T01:03:41;2.00;;;1.60;;
7719;SDS011;3902;49.474;8.616;2022-09-17T01:06:11;3.43;;;1.97;;
7719;SDS011;3902;49.474;8.616;2022-09-17T01:08:54;4.30;;;1.80;;
7719;SDS011;3902;49.474;8.616;2022-09-17T01:11:44;2.40;;;1.70;;
7719;SDS011;3902;49.474;8.616;2022-09-17T01:17:19;4.20;;;2.00;;
7719;SDS011;3902;49.474;8.616;2022-09-17T01:20:00;4.23;;;2.13;;
7719;SDS011;3902;49.474;8.616;2022-09-17T01:25:55;1.77;;;1.50;;
7719;SDS011;3902;49.474;8.616;2022-09-17T01:28:35;3.00;;;1.70;;
7719;SDS011;3902;49.474;8.616;2022-09-17T01:31:14;2.20;;;1.50;;
7719;SDS011;3902;49.474;8.616;2022-09-17T01:34:43;3.60;;;1.70;;
7719;SDS011;3902;49.474;8.616;2022-09-17T01:39:40;1.60;;;1.50;;
7719;SDS011;3902;49.474;8.616;2022-09-17T01:44:58;2.53;;;1.30;;
7719;SDS011;3902;49.474;8.616;2022-09-17T01:47:46;3.33;;;1.70;;
7719;SDS011;3902;49.474;8.616;2022-09-17T01:50:21;1.57;;;1.37;;
7719;SDS011;3902;49.474;8.616;2022-09-17T01:52:51;1.80;;;1.40;;
7719;SDS011;3902;49.474;8.616;2022-09-17T01:55:18;1.40;;;1.20;;
7719;SDS011;3902;49.474;8.616;2022-09-17T01:57:48;2.30;;;1.10;;
7719;SDS011;3902;49.474;8.616;2022-09-17T02:00:19;4.60;;;1.50;;
7719;SDS011;3902;49.474;8.616;2022-09-17T02:03:03;1.80;;;1.20;;
7719;SDS011;3902;49.474;8.616;2022-09-17T02:05:54;1.57;;;1.20;;
7719;SDS011;3902;49.474;8.616;2022-09-17T02:08:38;1.63;;;1.30;;
7719;SDS011;3902;49.474;8.616;2022-09-17T02:11:10;1.50;;;1.20;;
7719;SDS011;3902;49.474;8.616;2022-09-17T02:13:46;1.60;;;1.40;;
7719;SDS011;3902;49.474;8.616;2022-09-17T02:16:24;1.67;;;1.27;;
7719;SDS011;3902;49.474;8.616;2022-09-17T02:19:01;1.83;;;1.23;;
7719;SDS011;3902;49.474;8.616;2022-09-17T02:30:03;1.53;;;1.10;;
7719;SDS011;3902;49.474;8.616;2022-09-17T02:32:29;1.40;;;1.30;;
7719;SDS011;3902;49.474;8.616;2022-09-17T02:34:55;2.13;;;1.10;;
7719;SDS011;3902;49.474;8.616;2022-09-17T02:37:21;2.73;;;1.60;;
7719;SDS011;3902;49.474;8.616;2022-09-17T02:39:46;1.93;;;1.50;;
7719;SDS011;3902;49.474;8.616;2022-09-17T02:47:51;3.27;;;1.63;;
7719;SDS011;3902;49.474;8.616;2022-09-17T02:50:27;1.47;;;1.30;;
7719;SDS011;3902;49.474;8.616;2022-09-17T02:53:28;2.43;;;1.20;;
7719;SDS011;3902;49.474;8.616;2022-09-17T03:01:16;2.30;;;1.50;;
7719;SDS011;3902;49.474;8.616;2022-09-17T03:03:47;1.50;;;1.40;;
7719;SDS011;3902;49.474;8.616;2022-09-17T03:06:15;2.73;;;1.43;;
7719;SDS011;3902;49.474;8.616;2022-09-17T03:08:41;1.80;;;1.40;;
7719;SDS011;3902;49.474;8.616;2022-09-17T03:11:07;3.77;;;1.60;;
7719;SDS011;3902;49.474;8.616;2022-09-17T03:13:35;1.87;;;1.20;;
7719;SDS011;3902;49.474;8.616;2022-09-17T03:16:03;2.03;;;1.20;;
7719;SDS011;3902;49.474;8.616;2022-09-17T03:18:29;2.73;;;1.50;;
7719;SDS011;3902;49.474;8.616;2022-09-17T03:20:55;2.10;;;1.53;;
7719;SDS011;3902;49.474;8.616;2022-09-17T03:23:21;2.20;;;1.40;;
7719;SDS011;3902;49.474;8.616;2022-09-17T03:25:46;2.67;;;1.60;;
7719;SDS011;3902;49.474;8.616;2022-09-17T03:28:13;1.70;;;1.50;;
7719;SDS011;3902;49.474;8.616;2022-09-17T03:30:39;1.83;;;1.40;;
7719;SDS011;3902;49.474;8.616;2022-09-17T03:33:05;2.47;;;1.50;;
7719;SDS011;3902;49.474;8.616;2022-09-17T03:35:30;2.33;;;1.53;;
7719;SDS011;3902;49.474;8.616;2022-09-17T03:37:56;2.30;;;1.70;;
7719;SDS011;3902;49.474;8.616;2022-09-17T03:40:21;1.43;;;1.00;;
7719;SDS011;3902;49.474;8.616;2022-09-17T03:42:46;2.23;;;1.67;;
7719;SDS011;3902;49.474;8.616;2022-09-17T03:45:12;2.27;;;1.80;;
7719;SDS011;3902;49.474;8.616;2022-09-17T03:47:38;3.80;;;1.57;;
7719;SDS011;3902;49.474;8.616;2022-09-17T03:50:04;3.40;;;1.70;;
7719;SDS011;3902;49.474;8.616;2022-09-17T03:52:30;3.30;;;1.90;;
7719;SDS011;3902;49.474;8.616;2022-09-17T03:54:55;2.50;;;1.53;;
7719;SDS011;3902;49.474;8.616;2022-09-17T03:57:21;2.20;;;1.63;;
7719;SDS011;3902;49.474;8.616;2022-09-17T03:59:47;2.67;;;1.27;;
7719;SDS011;3902;49.474;8.616;2022-09-17T04:02:13;3.20;;;1.60;;
7719;SDS011;3902;49.474;8.616;2022-09-17T04:04:38;2.40;;;1.60;;
7719;SDS011;3902;49.474;8.616;2022-09-17T04:07:04;3.13;;;1.50;;
7719;SDS011;3902;49.474;8.616;2022-09-17T04:09:30;2.90;;;1.57;;
7719;SDS011;3902;49.474;8.616;2022-09-17T04:11:56;1.63;;;1.20;;
7719;SDS011;3902;49.474;8.616;2022-09-17T04:14:21;5.20;;;2.00;;
7719;SDS011;3902;49.474;8.616;2022-09-17T04:16:47;4.03;;;1.50;;
7719;SDS011;3902;49.474;8.616;2022-09-17T04:19:12;2.60;;;1.40;;
7719;SDS011;3902;49.474;8.616;2022-09-17T04:21:38;3.50;;;1.37;;
7719;SDS011;3902;49.474;8.616;2022-09-17T04:24:04;3.53;;;1.40;;
7719;SDS011;3902;49.474;8.616;2022-09-17T04:26:29;4.47;;;1.43;;
7719;SDS011;3902;49.474;8.616;2022-09-17T04:28:55;2.80;;;1.40;;
7719;SDS011;3902;49.474;8.616;2022-09-17T04:31:20;3.93;;;1.43;;
7719;SDS011;3902;49.474;8.616;2022-09-17T04:33:48;1.83;;;1.40;;
7719;SDS011;3902;49.474;8.616;2022-09-17T04:36:14;2.33;;;1.30;;
7719;SDS011;3902;49.474;8.616;2022-09-17T04:38:40;2.27;;;1.40;;
7719;SDS011;3902;49.474;8.616;2022-09-17T04:41:06;3.70;;;1.67;;
7719;SDS011;3902;49.474;8.616;2022-09-17T04:43:31;4.43;;;1.20;;
7719;SDS011;3902;49.474;8.616;2022-09-17T04:45:57;1.90;;;1.27;;
7719;SDS011;3902;49.474;8.616;2022-09-17T04:48:23;2.60;;;1.70;;
7719;SDS011;3902;49.474;8.616;2022-09-17T04:50:48;4.03;;;1.40;;
7719;SDS011;3902;49.474;8.616;2022-09-17T04:53:14;4.20;;;1.47;;
7719;SDS011;3902;49.474;8.616;2022-09-17T04:55:39;2.97;;;1.30;;
7719;SDS011;3902;49.474;8.616;2022-09-17T04:58:06;2.27;;;1.27;;
7719;SDS011;3902;49.474;8.616;2022-09-17T05:00:32;1.70;;;1.27;;
7719;SDS011;3902;49.474;8.616;2022-09-17T05:02:59;1.73;;;1.30;;
7719;SDS011;3902;49.474;8.616;2022-09-17T05:05:24;2.47;;;1.70;;
7719;SDS011;3902;49.474;8.616;2022-09-17T05:07:50;1.53;;;1.17;;
7719;SDS011;3902;49.474;8.616;2022-09-17T05:10:16;2.50;;;1.20;;
7719;SDS011;3902;49.474;8.616;2022-09-17T05:12:46;1.80;;;1.30;;
7719;SDS011;3902;49.474;8.616;2022-09-17T05:15:13;3.87;;;1.93;;
7719;SDS011;3902;49.474;8.616;2022-09-17T05:17:38;2.00;;;1.80;;
7719;SDS011;3902;49.474;8.616;2022-09-17T05:20:04;1.97;;;1.33;;
7719;SDS011;3902;49.474;8.616;2022-09-17T05:22:30;2.03;;;1.30;;
7719;SDS011;3902;49.474;8.616;2022-09-17T05:24:55;3.17;;;1.70;;
7719;SDS011;3902;49.474;8.616;2022-09-17T05:27:21;2.67;;;1.40;;
7719;SDS011;3902;49.474;8.616;2022-09-17T05:29:46;2.27;;;1.40;;
7719;SDS011;3902;49.474;8.616;2022-09-17T05:32:12;3.50;;;1.60;;
7719;SDS011;3902;49.474;8.616;2022-09-17T05:34:37;5.17;;;1.80;;
7719;SDS011;3902;49.474;8.616;2022-09-17T05:37:03;2.07;;;1.50;;
7719;SDS011;3902;49.474;8.616;2022-09-17T05:39:28;3.83;;;1.50;;
7719;SDS011;3902;49.474;8.616;2022-09-17T05:41:54;2.07;;;1.40;;
7719;SDS011;3902;49.474;8.616;2022-09-17T05:44:19;2.43;;;1.57;;
7719;SDS011;3902;49.474;8.616;2022-09-17T05:46:46;2.60;;;1.40;;
7719;SDS011;3902;49.474;8.616;2022-09-17T05:49:12;10.40;;;1.60;;
7719;SDS011;3902;49.474;8.616;2022-09-17T05:51:39;2.03;;;1.50;;
7719;SDS011;3902;49.474;8.616;2022-09-17T05:54:05;3.03;;;1.53;;
7719;SDS011;3902;49.474;8.616;2022-09-17T05:56:31;3.07;;;1.40;;
7719;SDS011;3902;49.474;8.616;2022-09-17T05:58:57;2.13;;;1.50;;
7719;SDS011;3902;49.474;8.616;2022-09-17T06:01:22;1.97;;;1.30;;
7719;SDS011;3902;49.474;8.616;2022-09-17T06:03:48;2.00;;;1.40;;
7719;SDS011;3902;49.474;8.616;2022-09-17T06:06:14;4.93;;;1.50;;
7719;SDS011;3902;49.474;8.616;2022-09-17T06:08:40;2.37;;;1.40;;
7719;SDS011;3902;49.474;8.616;2022-09-17T06:11:05;2.13;;;1.60;;
7719;SDS011;3902;49.474;8.616;2022-09-17T06:13:32;1.83;;;1.60;;
7719;SDS011;3902;49.474;8.616;2022-09-17T06:15:59;5.03;;;1.63;;
7719;SDS011;3902;49.474;8.616;2022-09-17T06:18:25;2.70;;;1.57;;
7719;SDS011;3902;49.474;8.616;2022-09-17T06:21:00;4.23;;;1.70;;
7719;SDS011;3902;49.474;8.616;2022-09-17T06:23:27;2.90;;;1.33;;
7719;SDS011;3902;49.474;8.616;2022-09-17T06:25:59;3.00;;;1.70;;
7719;SDS011;3902;49.474;8.616;2022-09-17T06:28:26;1.73;;;1.40;;
7719;SDS011;3902;49.474;8.616;2022-09-17T06:30:52;1.70;;;1.30;;
7719;SDS011;3902;49.474;8.616;2022-09-17T06:33:20;2.83;;;1.37;;
7719;SDS011;3902;49.474;8.616;2022-09-17T06:35:48;2.50;;;1.70;;
7719;SDS011;3902;49.474;8.616;2022-09-17T06:38:25;2.37;;;1.40;;
7719;SDS011;3902;49.474;8.616;2022-09-17T06:40:51;2.50;;;1.57;;
7719;SDS011;3902;49.474;8.616;2022-09-17T06:43:17;2.03;;;1.50;;
7719;SDS011;3902;49.474;8.616;2022-09-17T06:45:43;3.70;;;1.40;;
7719;SDS011;3902;49.474;8.616;2022-09-17T06:48:08;3.00;;;1.70;;
7719;SDS011;3902;49.474;8.616;2022-09-17T06:50:34;3.20;;;1.80;;
7719;SDS011;3902;49.474;8.616;2022-09-17T06:52:59;2.80;;;1.80;;
7719;SDS011;3902;49.474;8.616;2022-09-17T06:55:25;2.83;;;1.57;;
7719;SDS011;3902;49.474;8.616;2022-09-17T06:57:52;5.13;;;1.97;;
7719;SDS011;3902;49.474;8.616;2022-09-17T07:00:17;2.03;;;1.50;;
7719;SDS011;3902;49.474;8.616;2022-09-17T07:02:43;2.53;;;1.47;;
7719;SDS011;3902;49.474;8.616;2022-09-17T07:05:19;1.70;;;1.37;;
7719;SDS011;3902;49.474;8.616;2022-09-17T07:07:44;2.80;;;1.60;;
7719;SDS011;3902;49.474;8.616;2022-09-17T07:10:10;3.03;;;2.00;;
7719;SDS011;3902;49.474;8.616;2022-09-17T07:12:39;2.93;;;2.13;;
7719;SDS011;3902;49.474;8.616;2022-09-17T07:15:05;5.83;;;2.57;;
7719;SDS011;3902;49.474;8.616;2022-09-17T07:17:31;5.47;;;2.60;;
7719;SDS011;3902;49.474;8.616;2022-09-17T07:19:57;7.13;;;3.00;;
7719;SDS011;3902;49.474;8.616;2022-09-17T07:22:23;5.50;;;2.93;;
7719;SDS011;3902;49.474;8.616;2022-09-17T07:24:49;5.90;;;2.87;;
7719;SDS011;3902;49.474;8.616;2022-09-17T07:27:14;5.97;;;3.10;;
7719;SDS011;3902;49.474;8.616;2022-09-17T07:29:40;5.60;;;3.30;;
7719;SDS011;3902;49.474;8.616;2022-09-17T07:32:05;5.70;;;3.20;;
7719;SDS011;3902;49.474;8.616;2022-09-17T07:34:31;7.27;;;3.57;;
7719;SDS011;3902;49.474;8.616;2022-09-17T07:36:57;7.00;;;3.63;;
7719;SDS011;3902;49.474;8.616;2022-09-17T07:39:22;9.03;;;3.17;;
7719;SDS011;3902;49.474;8.616;2022-09-17T07:41:48;8.30;;;3.60;;
7719;SDS011;3902;49.474;8.616;2022-09-17T07:44:13;5.93;;;3.00;;
7719;SDS011;3902;49.474;8.616;2022-09-17T07:46:39;6.30;;;3.00;;
7719;SDS011;3902;49.474;8.616;2022-09-17T07:49:04;8.10;;;3.00;;
7719;SDS011;3902;49.474;8.616;2022-09-17T07:51:30;8.63;;;2.90;;
7719;SDS011;3902;49.474;8.616;2022-09-17T07:53:56;6.27;;;2.90;;
7719;SDS011;3902;49.474;8.616;2022-09-17T07:56:23;5.57;;;2.60;;
7719;SDS011;3902;49.474;8.616;2022-09-17T07:58:50;7.40;;;2.87;;
7719;SDS011;3902;49.474;8.616;2022-09-17T08:01:17;5.77;;;2.60;;
7719;SDS011;3902;49.474;8.616;2022-09-17T08:03:48;5.70;;;2.40;;
7719;SDS011;3902;49.474;8.616;2022-09-17T08:06:17;7.07;;;2.67;;
7719;SDS011;3902;49.474;8.616;2022-09-17T08:08:46;3.57;;;2.10;;
7719;SDS011;3902;49.474;8.616;2022-09-17T08:11:16;6.17;;;2.43;;
7719;SDS011;3902;49.474;8.616;2022-09-17T08:13:46;4.00;;;1.70;;
7719;SDS011;3902;49.474;8.616;2022-09-17T08:16:13;4.37;;;2.40;;
7719;SDS011;3902;49.474;8.616;2022-09-17T08:18:39;5.53;;;2.43;;
7719;SDS011;3902;49.474;8.616;2022-09-17T08:21:06;4.37;;;2.00;;
7719;SDS011;3902;49.474;8.616;2022-09-17T08:23:35;5.20;;;2.00;;
7719;SDS011;3902;49.474;8.616;2022-09-17T08:26:03;4.40;;;2.10;;
7719;SDS011;3902;49.474;8.616;2022-09-17T08:28:31;4.67;;;1.90;;
7719;SDS011;3902;49.474;8.616;2022-09-17T08:31:00;3.70;;;1.83;;
7719;SDS011;3902;49.474;8.616;2022-09-17T08:33:30;3.20;;;1.70;;
7719;SDS011;3902;49.474;8.616;2022-09-17T08:35:57;5.80;;;2.20;;
7719;SDS011;3902;49.474;8.616;2022-09-17T08:38:24;5.17;;;2.40;;
7719;SDS011;3902;49.474;8.616;2022-09-17T08:40:53;7.07;;;1.93;;
7719;SDS011;3902;49.474;8.616;2022-09-17T08:46:47;6.13;;;2.10;;
7719;SDS011;3902;49.474;8.616;2022-09-17T08:52:05;3.03;;;2.20;;
7719;SDS011;3902;49.474;8.616;2022-09-17T08:54:54;3.77;;;2.00;;
7719;SDS011;3902;49.474;8.616;2022-09-17T08:57:47;5.60;;;2.30;;
7719;SDS011;3902;49.474;8.616;2022-09-17T09:00:17;6.30;;;2.07;;
7719;SDS011;3902;49.474;8.616;2022-09-17T09:05:20;5.73;;;2.20;;
7719;SDS011;3902;49.474;8.616;2022-09-17T09:07:51;5.30;;;1.90;;
7719;SDS011;3902;49.474;8.616;2022-09-17T09:10:24;5.27;;;2.37;;
7719;SDS011;3902;49.474;8.616;2022-09-17T09:12:52;3.80;;;1.77;;
7719;SDS011;3902;49.474;8.616;2022-09-17T09:15:36;4.10;;;1.60;;
7719;SDS011;3902;49.474;8.616;2022-09-17T09:18:12;4.30;;;1.83;;
7719;SDS011;3902;49.474;8.616;2022-09-17T09:20:48;4.77;;;1.67;;
7719;SDS011;3902;49.474;8.616;2022-09-17T09:23:20;4.77;;;1.80;;
7719;SDS011;3902;49.474;8.616;2022-09-17T09:26:22;3.83;;;2.03;;
7719;SDS011;3902;49.474;8.616;2022-09-17T09:34:02;4.93;;;2.27;;
7719;SDS011;3902;49.474;8.616;2022-09-17T09:36:29;4.67;;;1.80;;
7719;SDS011;3902;49.474;8.616;2022-09-17T09:39:06;3.80;;;1.50;;
7719;SDS011;3902;49.474;8.616;2022-09-17T09:44:13;3.90;;;1.50;;
7719;SDS011;3902;49.474;8.616;2022-09-17T09:46:50;4.43;;;1.90;;
7719;SDS011;3902;49.474;8.616;2022-09-17T09:57:46;4.20;;;2.03;;
7719;SDS011;3902;49.474;8.616;2022-09-17T10:00:23;4.60;;;1.77;;
7719;SDS011;3902;49.474;8.616;2022-09-17T10:03:03;4.40;;;1.90;;
7719;SDS011;3902;49.474;8.616;2022-09-17T10:05:33;4.97;;;1.77;;
7719;SDS011;3902;49.474;8.616;2022-09-17T10:07:59;3.50;;;1.70;;
7719;SDS011;3902;49.474;8.616;2022-09-17T10:13:29;6.10;;;2.13;;
7719;SDS011;3902;49.474;8.616;2022-09-17T10:15:56;3.73;;;1.77;;
7719;SDS011;3902;49.474;8.616;2022-09-17T10:18:31;8.03;;;2.00;;
7719;SDS011;3902;49.474;8.616;2022-09-17T10:20:57;2.73;;;1.50;;
7719;SDS011;3902;49.474;8.616;2022-09-17T10:23:25;3.53;;;1.80;;
7719;SDS011;3902;49.474;8.616;2022-09-17T10:25:53;4.63;;;1.80;;
7719;SDS011;3902;49.474;8.616;2022-09-17T10:28:23;2.43;;;1.60;;
7719;SDS011;3902;49.474;8.616;2022-09-17T10:31:09;3.80;;;1.40;;
7719;SDS011;3902;49.474;8.616;2022-09-17T10:33:51;3.93;;;1.67;;
7719;SDS011;3902;49.474;8.616;2022-09-17T10:36:43;5.03;;;1.73;;
7719;SDS011;3902;49.474;8.616;2022-09-17T10:42:04;5.57;;;2.10;;
7719;SDS011;3902;49.474;8.616;2022-09-17T10:44:37;5.40;;;1.40;;
7719;SDS011;3902;49.474;8.616;2022-09-17T10:49:38;5.17;;;2.13;;
7719;SDS011;3902;49.474;8.616;2022-09-17T10:52:39;6.07;;;1.83;;
7719;SDS011;3902;49.474;8.616;2022-09-17T11:14:07;5.03;;;2.03;;
7719;SDS011;3902;49.474;8.616;2022-09-17T11:16:56;5.73;;;2.53;;
7719;SDS011;3902;49.474;8.616;2022-09-17T11:19:57;5.23;;;1.80;;
7719;SDS011;3902;49.474;8.616;2022-09-17T11:25:13;5.20;;;1.67;;
7719;SDS011;3902;49.474;8.616;2022-09-17T11:30:25;3.80;;;1.87;;
7719;SDS011;3902;49.474;8.616;2022-09-17T11:33:17;2.80;;;1.60;;
7719;SDS011;3902;49.474;8.616;2022-09-17T11:35:54;4.07;;;1.40;;
7719;SDS011;3902;49.474;8.616;2022-09-17T11:38:39;2.53;;;1.50;;
7719;SDS011;3902;49.474;8.616;2022-09-17T11:41:13;2.80;;;1.63;;
7719;SDS011;3902;49.474;8.616;2022-09-17T11:43:48;3.50;;;1.90;;
7719;SDS011;3902;49.474;8.616;2022-09-17T11:46:32;2.70;;;1.50;;
7719;SDS011;3902;49.474;8.616;2022-09-17T11:49:05;3.37;;;1.47;;
7719;SDS011;3902;49.474;8.616;2022-09-17T11:51:47;3.23;;;1.40;;
7719;SDS011;3902;49.474;8.616;2022-09-17T11:54:30;1.63;;;1.17;;
7719;SDS011;3902;49.474;8.616;2022-09-17T11:57:05;2.40;;;1.20;;
7719;SDS011;3902;49.474;8.616;2022-09-17T12:02:18;3.70;;;1.80;;
7719;SDS011;3902;49.474;8.616;2022-09-17T12:04:51;3.60;;;1.40;;
7719;SDS011;3902;49.474;8.616;2022-09-17T12:07:30;2.00;;;1.20;;
7719;SDS011;3902;49.474;8.616;2022-09-17T12:10:34;4.47;;;1.50;;
7719;SDS011;3902;49.474;8.616;2022-09-17T12:13:22;4.63;;;2.00;;
7719;SDS011;3902;49.474;8.616;2022-09-17T12:15:57;1.70;;;1.50;;
7719;SDS011;3902;49.474;8.616;2022-09-17T12:21:21;6.70;;;2.23;;
7719;SDS011;3902;49.474;8.616;2022-09-17T12:26:33;4.50;;;1.70;;
7719;SDS011;3902;49.474;8.616;2022-09-17T12:32:28;2.90;;;1.77;;
7719;SDS011;3902;49.474;8.616;2022-09-17T12:38:14;7.30;;;2.07;;
7719;SDS011;3902;49.474;8.616;2022-09-17T12:41:15;2.53;;;1.40;;
7719;SDS011;3902;49.474;8.616;2022-09-17T12:43:54;3.00;;;1.63;;
7719;SDS011;3902;49.474;8.616;2022-09-17T12:52:25;5.60;;;1.73;;
7719;SDS011;3902;49.474;8.616;2022-09-17T12:58:04;3.90;;;2.00;;
7719;SDS011;3902;49.474;8.616;2022-09-17T13:00:53;3.83;;;1.37;;
7719;SDS011;3902;49.474;8.616;2022-09-17T13:09:09;3.10;;;1.20;;
7719;SDS011;3902;49.474;8.616;2022-09-17T13:11:58;2.60;;;1.30;;
7719;SDS011;3902;49.474;8.616;2022-09-17T13:14:50;2.37;;;1.40;;
7719;SDS011;3902;49.474;8.616;2022-09-17T13:17:35;4.03;;;1.60;;
7719;SDS011;3902;49.474;8.616;2022-09-17T13:20:13;5.17;;;1.53;;
7719;SDS011;3902;49.474;8.616;2022-09-17T13:22:44;3.23;;;1.50;;
7719;SDS011;3902;49.474;8.616;2022-09-17T13:25:12;2.30;;;1.27;;
7719;SDS011;3902;49.474;8.616;2022-09-17T13:27:40;1.70;;;1.30;;
7719;SDS011;3902;49.474;8.616;2022-09-17T13:30:07;2.70;;;1.23;;
7719;SDS011;3902;49.474;8.616;2022-09-17T13:42:58;2.90;;;1.40;;
7719;SDS011;3902;49.474;8.616;2022-09-17T13:45:30;4.23;;;1.50;;
7719;SDS011;3902;49.474;8.616;2022-09-17T13:47:58;1.50;;;1.20;;
7719;SDS011;3902;49.474;8.616;2022-09-17T13:52:52;3.03;;;1.73;;
7719;SDS011;3902;49.474;8.616;2022-09-17T13:58:07;2.20;;;1.70;;
7719;SDS011;3902;49.474;8.616;2022-09-17T14:08:25;2.70;;;1.50;;
7719;SDS011;3902;49.474;8.616;2022-09-17T14:10:58;2.17;;;1.40;;
7719;SDS011;3902;49.474;8.616;2022-09-17T14:16:22;2.30;;;1.63;;
7719;SDS011;3902;49.474;8.616;2022-09-17T14:19:22;3.67;;;1.60;;
7719;SDS011;3902;49.474;8.616;2022-09-17T14:24:34;2.97;;;1.60;;
7719;SDS011;3902;49.474;8.616;2022-09-17T14:37:59;1.47;;;1.20;;
7719;SDS011;3902;49.474;8.616;2022-09-17T14:40:37;3.63;;;1.90;;
7719;SDS011;3902;49.474;8.616;2022-09-17T14:43:09;3.97;;;2.10;;
7719;SDS011;3902;49.474;8.616;2022-09-17T14:45:42;2.73;;;1.40;;
7719;SDS011;3902;49.474;8.616;2022-09-17T14:53:41;5.10;;;1.30;;
7719;SDS011;3902;49.474;8.616;2022-09-17T14:56:08;2.20;;;1.20;;
7719;SDS011;3902;49.474;8.616;2022-09-17T14:58:36;1.47;;;1.00;;
7719;SDS011;3902;49.474;8.616;2022-09-17T15:01:12;1.60;;;1.10;;
7719;SDS011;3902;49.474;8.616;2022-09-17T15:03:49;1.70;;;1.20;;
7719;SDS011;3902;49.474;8.616;2022-09-17T15:06:31;3.80;;;1.47;;
7719;SDS011;3902;49.474;8.616;2022-09-17T15:08:57;1.67;;;1.27;;
7719;SDS011;3902;49.474;8.616;2022-09-17T15:11:22;4.07;;;1.60;;
7719;SDS011;3902;49.474;8.616;2022-09-17T15:13:49;1.90;;;1.50;;
7719;SDS011;3902;49.474;8.616;2022-09-17T15:16:20;2.67;;;1.77;;
7719;SDS011;3902;49.474;8.616;2022-09-17T15:18:51;1.97;;;1.43;;
7719;SDS011;3902;49.474;8.616;2022-09-17T15:21:32;1.83;;;1.50;;
7719;SDS011;3902;49.474;8.616;2022-09-17T15:24:03;2.20;;;1.27;;
7719;SDS011;3902;49.474;8.616;2022-09-17T15:26:51;2.30;;;1.43;;
7719;SDS011;3902;49.474;8.616;2022-09-17T15:29:19;5.43;;;2.03;;
7719;SDS011;3902;49.474;8.616;2022-09-17T15:31:47;3.07;;;1.93;;
7719;SDS011;3902;49.474;8.616;2022-09-17T15:34:13;3.73;;;2.47;;
7719;SDS011;3902;49.474;8.616;2022-09-17T15:36:38;3.43;;;1.70;;
7719;SDS011;3902;49.474;8.616;2022-09-17T15:39:27;2.50;;;1.60;;
7719;SDS011;3902;49.474;8.616;2022-09-17T15:41:54;2.70;;;1.50;;
7719;SDS011;3902;49.474;8.616;2022-09-17T15:44:22;2.10;;;1.30;;
7719;SDS011;3902;49.474;8.616;2022-09-17T15:46:49;2.43;;;1.43;;
7719;SDS011;3902;49.474;8.616;2022-09-17T15:49:32;2.43;;;1.50;;
7719;SDS011;3902;49.474;8.616;2022-09-17T15:54:50;1.77;;;1.20;;
7719;SDS011;3902;49.474;8.616;2022-09-17T15:57:15;2.83;;;1.30;;
7719;SDS011;3902;49.474;8.616;2022-09-17T15:59:42;2.90;;;1.33;;
7719;SDS011;3902;49.474;8.616;2022-09-17T16:02:16;2.80;;;1.40;;
7719;SDS011;3902;49.474;8.616;2022-09-17T16:04:56;2.43;;;1.20;;
7719;SDS011;3902;49.474;8.616;2022-09-17T16:07:45;1.67;;;1.30;;
7719;SDS011;3902;49.474;8.616;2022-09-17T16:10:11;2.53;;;1.50;;
7719;SDS011;3902;49.474;8.616;2022-09-17T16:12:38;2.40;;;1.37;;
7719;SDS011;3902;49.474;8.616;2022-09-17T16:15:04;2.13;;;1.67;;
7719;SDS011;3902;49.474;8.616;2022-09-17T16:17:31;3.47;;;1.80;;
7719;SDS011;3902;49.474;8.616;2022-09-17T16:20:03;3.30;;;1.97;;
7719;SDS011;3902;49.474;8.616;2022-09-17T16:22:36;3.50;;;1.50;;
7719;SDS011;3902;49.474;8.616;2022-09-17T16:25:01;2.43;;;1.30;;
7719;SDS011;3902;49.474;8.616;2022-09-17T16:27:28;2.03;;;1.43;;
7719;SDS011;3902;49.474;8.616;2022-09-17T16:30:01;2.10;;;1.43;;
7719;SDS011;3902;49.474;8.616;2022-09-17T16:32:33;1.30;;;1.13;;
7719;SDS011;3902;49.474;8.616;2022-09-17T16:34:59;3.00;;;1.20;;
7719;SDS011;3902;49.474;8.616;2022-09-17T16:37:24;1.20;;;1.10;;
7719;SDS011;3902;49.474;8.616;2022-09-17T16:39:50;1.43;;;1.10;;
7719;SDS011;3902;49.474;8.616;2022-09-17T16:42:16;1.53;;;1.10;;
7719;SDS011;3902;49.474;8.616;2022-09-17T16:44:42;2.50;;;1.17;;
7719;SDS011;3902;49.474;8.616;2022-09-17T16:47:08;1.30;;;0.97;;
7719;SDS011;3902;49.474;8.616;2022-09-17T16:49:34;2.63;;;1.00;;
7719;SDS011;3902;49.474;8.616;2022-09-17T16:51:59;1.10;;;0.93;;
7719;SDS011;3902;49.474;8.616;2022-09-17T16:54:25;1.30;;;0.90;;
7719;SDS011;3902;49.474;8.616;2022-09-17T16:56:50;1.10;;;1.00;;
7719;SDS011;3902;49.474;8.616;2022-09-17T16:59:16;2.60;;;1.57;;
7719;SDS011;3902;49.474;8.616;2022-09-17T17:01:41;2.03;;;1.07;;
7719;SDS011;3902;49.474;8.616;2022-09-17T17:04:07;1.90;;;1.20;;
7719;SDS011;3902;49.474;8.616;2022-09-17T17:06:33;2.33;;;1.10;;
7719;SDS011;3902;49.474;8.616;2022-09-17T17:08:58;1.50;;;1.17;;
7719;SDS011;3902;49.474;8.616;2022-09-17T17:11:25;1.40;;;1.00;;
7719;SDS011;3902;49.474;8.616;2022-09-17T17:13:52;1.17;;;0.90;;
7719;SDS011;3902;49.474;8.616;2022-09-17T17:16:21;1.40;;;1.03;;
7719;SDS011;3902;49.474;8.616;2022-09-17T17:18:47;1.87;;;1.30;;
7719;SDS011;3902;49.474;8.616;2022-09-17T17:21:15;1.93;;;1.20;;
7719;SDS011;3902;49.474;8.616;2022-09-17T17:23:40;1.00;;;0.90;;
7719;SDS011;3902;49.474;8.616;2022-09-17T17:26:11;1.87;;;1.20;;
7719;SDS011;3902;49.474;8.616;2022-09-17T17:28:38;1.73;;;0.97;;
7719;SDS011;3902;49.474;8.616;2022-09-17T17:31:03;3.63;;;1.00;;
7719;SDS011;3902;49.474;8.616;2022-09-17T17:33:30;1.20;;;1.00;;
7719;SDS011;3902;49.474;8.616;2022-09-17T17:35:58;1.37;;;0.90;;
7719;SDS011;3902;49.474;8.616;2022-09-17T17:38:24;1.23;;;1.00;;
7719;SDS011;3902;49.474;8.616;2022-09-17T17:41:00;1.80;;;1.03;;
7719;SDS011;3902;49.474;8.616;2022-09-17T17:43:27;1.97;;;1.17;;
7719;SDS011;3902;49.474;8.616;2022-09-17T17:45:52;1.70;;;1.20;;
7719;SDS011;3902;49.474;8.616;2022-09-17T17:48:18;1.90;;;1.37;;
7719;SDS011;3902;49.474;8.616;2022-09-17T17:50:43;1.63;;;1.10;;
7719;SDS011;3902;49.474;8.616;2022-09-17T17:53:08;2.63;;;1.87;;
7719;SDS011;3902;49.474;8.616;2022-09-17T17:55:34;4.23;;;2.13;;
7719;SDS011;3902;49.474;8.616;2022-09-17T17:58:00;3.43;;;1.97;;
7719;SDS011;3902;49.474;8.616;2022-09-17T18:00:25;3.47;;;2.40;;
7719;SDS011;3902;49.474;8.616;2022-09-17T18:02:51;2.60;;;2.00;;
7719;SDS011;3902;49.474;8.616;2022-09-17T18:05:16;2.23;;;1.80;;
7719;SDS011;3902;49.474;8.616;2022-09-17T18:07:42;2.87;;;1.93;;
7719;SDS011;3902;49.474;8.616;2022-09-17T18:10:07;3.60;;;2.30;;
7719;SDS011;3902;49.474;8.616;2022-09-17T18:12:33;2.60;;;2.13;;
7719;SDS011;3902;49.474;8.616;2022-09-17T18:15:00;2.20;;;2.00;;
7719;SDS011;3902;49.474;8.616;2022-09-17T18:17:27;2.03;;;1.70;;
7719;SDS011;3902;49.474;8.616;2022-09-17T18:19:52;2.23;;;2.03;;
7719;SDS011;3902;49.474;8.616;2022-09-17T18:22:20;2.93;;;1.70;;
7719;SDS011;3902;49.474;8.616;2022-09-17T18:24:45;2.23;;;1.87;;